createdAt,value
2018-10-17T00:01:01.353Z,96.90
2018-10-17T00:03:28.811Z,97.00
2018-10-17T00:05:56.341Z,97.00
2018-10-17T00:08:23.860Z,97.00
2018-10-17T00:10:51.356Z,97.00
2018-10-17T00:13:18.841Z,97.00
2018-10-17T00:15:46.290Z,97.00
2018-10-17T00:18:13.760Z,97.00
2018-10-17T00:20:41.240Z,97.00
2018-10-17T00:23:08.781Z,97.00
2018-10-17T00:25:36.144Z,97.00
2018-10-17T00:28:03.723Z,97.10
2018-10-17T00:30:31.189Z,97.10
2018-10-17T00:32:58.701Z,97.10
2018-10-17T00:35:26.153Z,97.10
2018-10-17T00:37:53.600Z,97.10
2018-10-17T00:40:23.104Z,97.10
2018-10-17T00:42:51.124Z,97.20
2018-10-17T00:45:18.569Z,97.20
2018-10-17T00:47:46.027Z,97.20
2018-10-17T00:50:13.477Z,97.20
2018-10-17T00:52:40.932Z,97.30
2018-10-17T00:55:08.461Z,97.30
2018-10-17T00:57:35.991Z,97.30
2018-10-17T01:00:03.561Z,97.40
2018-10-17T01:02:31.165Z,97.40
2018-10-17T01:04:58.773Z,97.50
2018-10-17T01:07:26.282Z,97.50
2018-10-17T01:09:53.768Z,97.50
2018-10-17T01:12:21.244Z,97.60
2018-10-17T01:14:49.580Z,97.70
2018-10-17T01:17:17.063Z,97.70
2018-10-17T01:19:44.522Z,97.70
2018-10-17T01:22:11.998Z,97.70
2018-10-17T01:24:39.560Z,97.80
2018-10-17T01:27:07.044Z,97.80
2018-10-17T01:29:34.524Z,97.80
2018-10-17T01:32:02.025Z,97.80
2018-10-17T01:34:29.501Z,97.80
2018-10-17T01:36:57.019Z,97.80
2018-10-17T01:39:24.506Z,97.80
2018-10-17T01:41:51.989Z,97.90
2018-10-17T01:44:19.474Z,97.90
2018-10-17T01:46:46.927Z,98.00
2018-10-17T01:49:14.494Z,98.00
2018-10-17T01:51:41.922Z,98.10
2018-10-17T01:54:09.407Z,98.10
2018-10-17T01:56:36.883Z,98.10
2018-10-17T01:59:05.037Z,98.10
2018-10-17T02:01:32.504Z,98.20
2018-10-17T02:03:59.980Z,98.20
2018-10-17T02:06:27.442Z,98.20
2018-10-17T02:08:54.971Z,98.30
2018-10-17T02:11:22.466Z,98.30
2018-10-17T02:13:49.975Z,98.40
2018-10-17T02:16:17.452Z,98.40
2018-10-17T02:18:44.923Z,98.50
2018-10-17T02:21:12.411Z,98.60
2018-10-17T02:23:39.875Z,98.60
2018-10-17T02:26:07.325Z,98.60
2018-10-17T02:28:34.772Z,98.70
2018-10-17T02:31:02.267Z,98.80
2018-10-17T02:33:29.719Z,98.80
2018-10-17T02:35:57.261Z,98.80
2018-10-17T02:38:24.779Z,98.80
2018-10-17T02:40:52.385Z,98.90
2018-10-17T02:43:19.878Z,98.90
2018-10-17T02:45:47.383Z,99.00
2018-10-17T02:48:14.878Z,99.10
2018-10-17T02:50:42.392Z,99.10
2018-10-17T02:53:09.948Z,99.10
2018-10-17T02:55:37.381Z,99.30
2018-10-17T02:58:04.854Z,99.50
2018-10-17T03:00:32.357Z,99.50
2018-10-17T03:02:59.821Z,99.40
2018-10-17T03:05:27.292Z,99.40
2018-10-17T03:07:54.821Z,99.40
2018-10-17T03:10:22.327Z,99.50
2018-10-17T03:12:49.794Z,99.40
2018-10-17T03:15:17.252Z,99.40
2018-10-17T03:17:44.731Z,99.50
2018-10-17T03:20:12.213Z,99.50
2018-10-17T03:22:39.803Z,99.50
2018-10-17T03:25:08.208Z,99.60
2018-10-17T03:27:35.607Z,99.60
2018-10-17T03:30:03.160Z,99.70
2018-10-17T03:32:31.004Z,99.70
2018-10-17T03:34:58.479Z,99.70
2018-10-17T03:37:25.971Z,99.80
2018-10-17T03:39:53.500Z,99.80
2018-10-17T03:42:20.993Z,99.90
2018-10-17T03:44:48.448Z,99.90
2018-10-17T03:47:16.091Z,99.90
2018-10-17T03:49:43.620Z,99.90
2018-10-17T03:52:11.098Z,99.90
2018-10-17T03:54:38.610Z,99.90
2018-10-17T03:57:06.126Z,99.90
2018-10-17T03:59:33.779Z,99.90
2018-10-17T04:02:01.086Z,99.90
2018-10-17T04:04:28.600Z,99.90
2018-10-17T04:06:56.107Z,99.90
2018-10-17T04:09:23.526Z,99.90
2018-10-17T04:11:50.995Z,99.90
2018-10-17T04:14:18.476Z,99.90
2018-10-17T04:16:45.925Z,99.90
2018-10-17T04:19:13.410Z,99.90
2018-10-17T04:21:40.859Z,99.90
2018-10-17T04:24:08.336Z,99.90
2018-10-17T04:26:35.877Z,99.90
2018-10-17T04:29:03.433Z,99.90
2018-10-17T04:31:30.841Z,99.90
2018-10-17T04:33:58.329Z,99.90
2018-10-17T04:36:25.802Z,99.90
2018-10-17T04:38:53.275Z,99.90
2018-10-17T04:41:20.891Z,99.90
2018-10-17T04:43:48.264Z,99.90
2018-10-17T04:46:15.746Z,99.90
2018-10-17T04:48:43.206Z,99.90
2018-10-17T04:51:10.655Z,99.90
2018-10-17T04:53:38.119Z,99.90
2018-10-17T04:56:05.627Z,99.90
2018-10-17T04:58:33.129Z,99.90
2018-10-17T05:01:00.622Z,99.90
2018-10-17T05:03:28.059Z,99.90
2018-10-17T05:05:55.542Z,99.90
2018-10-17T05:08:23.135Z,99.90
2018-10-17T05:10:50.634Z,99.90
2018-10-17T05:13:18.121Z,99.90
2018-10-17T05:15:45.612Z,99.90
2018-10-17T05:18:13.076Z,99.90
2018-10-17T05:20:40.558Z,99.90
2018-10-17T05:23:08.150Z,99.90
2018-10-17T05:25:35.574Z,99.90
2018-10-17T05:28:03.097Z,99.90
2018-10-17T05:30:30.578Z,99.90
2018-10-17T05:32:58.080Z,99.90
2018-10-17T05:35:25.556Z,99.90
2018-10-17T05:37:53.166Z,99.90
2018-10-17T05:40:20.549Z,99.90
2018-10-17T05:42:48.034Z,99.90
2018-10-17T05:45:15.539Z,99.90
2018-10-17T05:47:43.025Z,99.90
2018-10-17T05:50:10.491Z,99.90
2018-10-17T05:52:37.977Z,99.90
2018-10-17T05:55:05.709Z,99.90
2018-10-17T05:57:33.131Z,99.90
2018-10-17T06:00:00.603Z,99.90
2018-10-17T06:02:30.788Z,99.90
2018-10-17T06:04:58.243Z,99.90
2018-10-17T06:07:25.708Z,99.90
2018-10-17T06:09:53.187Z,99.90
2018-10-17T06:12:20.765Z,99.90
2018-10-17T06:14:48.297Z,99.90
2018-10-17T06:17:15.814Z,99.90
2018-10-17T06:19:43.250Z,99.90
2018-10-17T06:22:10.791Z,99.90
2018-10-17T06:24:38.278Z,99.90
2018-10-17T06:27:05.820Z,99.90
2018-10-17T06:29:33.364Z,99.90
2018-10-17T06:32:00.832Z,99.90
2018-10-17T06:34:28.358Z,99.90
2018-10-17T06:36:55.835Z,99.90
2018-10-17T06:39:23.280Z,99.90
2018-10-17T06:41:50.756Z,99.90
2018-10-17T06:44:19.142Z,99.90
2018-10-17T06:46:46.716Z,99.90
2018-10-17T06:49:14.253Z,99.90
2018-10-17T06:51:41.686Z,99.90
2018-10-17T06:54:09.165Z,99.90
2018-10-17T06:56:36.684Z,99.90
2018-10-17T06:59:04.550Z,99.90
2018-10-17T07:01:32.457Z,99.90
2018-10-17T07:04:00.299Z,99.90
2018-10-17T07:06:27.854Z,99.90
2018-10-17T07:08:55.409Z,99.90
2018-10-17T07:11:23.008Z,99.90
2018-10-17T07:13:50.431Z,99.90
2018-10-17T07:16:18.097Z,97.40
2018-10-17T07:18:45.640Z,95.00
2018-10-17T07:21:14.189Z,92.80
2018-10-17T07:23:41.706Z,90.90
2018-10-17T07:26:09.236Z,87.70
2018-10-17T07:28:36.749Z,82.80
2018-10-17T07:31:04.470Z,76.90
2018-10-17T07:33:31.960Z,71.50
2018-10-17T07:35:59.483Z,66.70
2018-10-17T07:38:27.242Z,64.00
2018-10-17T07:40:54.814Z,60.90
2018-10-17T07:43:23.249Z,58.00
2018-10-17T07:45:51.068Z,55.30
2018-10-17T07:48:18.651Z,53.50
2018-10-17T07:50:46.148Z,51.80
2018-10-17T07:53:13.685Z,49.80
2018-10-17T07:55:41.168Z,48.90
2018-10-17T07:58:08.685Z,47.40
2018-10-17T08:00:36.217Z,46.70
2018-10-17T08:03:03.803Z,46.00
2018-10-17T08:05:31.390Z,45.00
2018-10-17T08:07:58.923Z,44.10
2018-10-17T08:10:26.446Z,42.50
2018-10-17T08:12:53.938Z,41.80
2018-10-17T08:15:22.439Z,41.20
2018-10-17T08:17:49.969Z,40.50
2018-10-17T08:20:17.475Z,40.00
2018-10-17T08:22:45.033Z,39.40
2018-10-17T08:25:12.725Z,38.80
2018-10-17T08:27:40.676Z,38.10
2018-10-17T08:30:09.082Z,37.20
2018-10-17T08:32:37.015Z,36.80
2018-10-17T08:35:04.651Z,36.60
2018-10-17T08:37:32.471Z,35.90
2018-10-17T08:39:59.732Z,35.60
2018-10-17T08:42:27.208Z,35.20
2018-10-17T08:44:54.873Z,34.80
2018-10-17T08:47:22.386Z,34.30
2018-10-17T08:49:49.913Z,33.70
2018-10-17T08:52:17.589Z,33.20
2018-10-17T08:54:45.163Z,33.10
2018-10-17T08:57:13.355Z,33.30
2018-10-17T08:59:40.929Z,32.80
2018-10-17T09:02:08.531Z,33.00
2018-10-17T09:04:36.327Z,33.60
2018-10-17T09:07:04.067Z,35.20
2018-10-17T09:09:31.596Z,36.80
2018-10-17T09:11:59.176Z,38.40
2018-10-17T09:14:26.706Z,39.90
2018-10-17T09:16:54.202Z,40.90
2018-10-17T09:19:21.783Z,41.80
2018-10-17T09:21:49.488Z,42.60
2018-10-17T09:24:19.024Z,43.30
2018-10-17T09:26:46.649Z,44.00
2018-10-17T09:29:14.185Z,44.50
2018-10-17T09:31:41.666Z,45.00
2018-10-17T09:34:09.241Z,45.40
2018-10-17T09:36:36.864Z,45.70
2018-10-17T09:39:06.892Z,45.90
2018-10-17T09:41:34.396Z,46.20
2018-10-17T09:44:02.177Z,46.60
2018-10-17T09:46:29.701Z,46.90
2018-10-17T09:48:57.203Z,47.10
2018-10-17T09:51:24.737Z,47.30
2018-10-17T09:53:52.338Z,47.50
2018-10-17T09:56:19.903Z,47.80
2018-10-17T09:58:47.393Z,48.10
2018-10-17T10:02:19.219Z,48.40
2018-10-17T10:04:46.704Z,48.50
2018-10-17T10:07:14.209Z,48.40
2018-10-17T10:09:41.678Z,48.80
2018-10-17T10:12:09.225Z,48.60
2018-10-17T10:14:36.696Z,48.70
2018-10-17T10:17:04.364Z,48.70
2018-10-17T10:19:31.838Z,48.70
2018-10-17T10:21:59.501Z,48.80
2018-10-17T10:24:27.011Z,49.00
2018-10-17T10:26:55.290Z,48.60
2018-10-17T10:29:22.830Z,48.70
2018-10-17T10:31:50.377Z,48.70
2018-10-17T10:34:17.884Z,48.50
2018-10-17T10:36:45.327Z,48.40
2018-10-17T10:39:13.063Z,48.40
2018-10-17T10:41:40.952Z,48.50
2018-10-17T10:44:08.606Z,48.50
2018-10-17T10:46:36.067Z,48.70
2018-10-17T10:49:03.764Z,48.70
2018-10-17T10:51:31.274Z,48.80
2018-10-17T10:53:58.858Z,48.70
2018-10-17T10:56:26.271Z,48.90
2018-10-17T10:58:53.780Z,49.00
2018-10-17T11:01:21.612Z,49.20
2018-10-17T11:03:49.087Z,49.20
2018-10-17T11:06:16.606Z,49.30
2018-10-17T11:08:44.104Z,49.40
2018-10-17T11:11:11.704Z,49.50
2018-10-17T11:13:39.173Z,49.40
2018-10-17T11:16:06.876Z,49.40
2018-10-17T11:18:34.359Z,49.30
2018-10-17T11:21:01.913Z,49.40
2018-10-17T11:23:29.323Z,49.40
2018-10-17T11:25:56.825Z,49.50
2018-10-17T11:28:24.355Z,49.60
2018-10-17T11:30:51.841Z,49.80
2018-10-17T11:33:19.419Z,49.80
2018-10-17T11:35:46.845Z,49.80
2018-10-17T11:38:14.331Z,50.00
2018-10-17T11:40:41.982Z,49.90
2018-10-17T11:43:09.364Z,49.90
2018-10-17T11:45:36.825Z,50.10
2018-10-17T11:48:04.462Z,50.10
2018-10-17T11:50:31.984Z,50.10
2018-10-17T11:52:59.504Z,50.10
2018-10-17T11:55:27.014Z,50.20
2018-10-17T11:57:54.520Z,50.50
2018-10-17T12:00:22.043Z,50.60
2018-10-17T12:02:49.518Z,50.60
2018-10-17T12:05:17.280Z,50.70
2018-10-17T12:07:44.638Z,50.90
2018-10-17T12:10:12.102Z,50.90
2018-10-17T12:12:39.637Z,50.80
2018-10-17T12:15:10.885Z,50.80
2018-10-17T12:17:38.436Z,51.00
2018-10-17T12:20:08.006Z,51.10
2018-10-17T12:22:35.560Z,51.00
2018-10-17T12:25:03.164Z,51.00
2018-10-17T12:27:30.695Z,51.00
2018-10-17T12:29:58.199Z,51.20
2018-10-17T12:32:25.685Z,51.30
2018-10-17T12:34:53.176Z,51.60
2018-10-17T12:37:20.678Z,51.70
2018-10-17T12:39:48.271Z,51.80
2018-10-17T12:42:15.704Z,51.90
2018-10-17T12:44:43.236Z,52.10
2018-10-17T12:47:10.726Z,52.10
2018-10-17T12:49:38.279Z,52.10
2018-10-17T12:52:05.897Z,52.20
2018-10-17T12:54:33.278Z,52.30
2018-10-17T12:57:00.815Z,52.30
2018-10-17T12:59:28.341Z,52.50
2018-10-17T13:01:55.807Z,52.50
2018-10-17T13:04:23.291Z,52.50
2018-10-17T13:06:50.785Z,52.50
2018-10-17T13:09:18.243Z,52.50
2018-10-17T13:11:45.711Z,52.40
2018-10-17T13:14:13.192Z,52.40
2018-10-17T13:16:40.715Z,52.40
2018-10-17T13:19:08.221Z,52.40
2018-10-17T13:21:35.732Z,52.40
2018-10-17T13:24:03.219Z,52.40
2018-10-17T13:26:30.730Z,52.40
2018-10-17T13:28:58.305Z,52.40
2018-10-17T13:31:25.856Z,52.40
2018-10-17T13:33:53.359Z,52.40
2018-10-17T13:36:20.816Z,52.40
2018-10-17T13:38:48.370Z,52.40
2018-10-17T13:41:15.934Z,52.60
2018-10-17T13:43:43.437Z,52.70
2018-10-17T13:46:10.932Z,52.70
2018-10-17T13:48:38.456Z,52.80
2018-10-17T13:51:05.981Z,52.90
2018-10-17T13:53:33.509Z,53.00
2018-10-17T13:56:01.030Z,53.00
2018-10-17T13:58:28.644Z,53.10
2018-10-17T14:00:56.124Z,53.30
2018-10-17T14:03:23.581Z,53.40
2018-10-17T14:05:51.108Z,53.40
2018-10-17T14:08:18.619Z,53.40
2018-10-17T14:10:46.177Z,53.30
2018-10-17T14:13:13.660Z,53.40
2018-10-17T14:15:41.147Z,53.60
2018-10-17T14:18:08.757Z,53.70
2018-10-17T14:20:36.192Z,53.70
2018-10-17T14:23:03.861Z,53.90
2018-10-17T14:25:31.374Z,54.00
2018-10-17T14:27:58.918Z,53.80
2018-10-17T14:30:26.412Z,53.80
2018-10-17T14:32:53.912Z,53.80
2018-10-17T14:35:21.391Z,53.80
2018-10-17T14:37:48.913Z,53.80
2018-10-17T14:40:16.362Z,53.90
2018-10-17T14:42:43.869Z,54.00
2018-10-17T14:45:11.337Z,54.10
2018-10-17T14:47:39.250Z,54.10
2018-10-17T14:50:06.795Z,54.20
2018-10-17T14:52:34.569Z,54.20
2018-10-17T14:55:02.149Z,54.30
2018-10-17T14:57:30.036Z,54.40
2018-10-17T14:59:57.523Z,54.50
2018-10-17T15:02:25.027Z,54.60
2018-10-17T15:04:52.555Z,54.70
2018-10-17T15:07:20.005Z,54.80
2018-10-17T15:09:47.563Z,55.00
2018-10-17T15:12:14.993Z,55.20
2018-10-17T15:14:42.479Z,55.20
2018-10-17T15:17:09.967Z,55.30
2018-10-17T15:19:37.447Z,55.40
2018-10-17T15:22:05.002Z,55.50
2018-10-17T15:24:32.613Z,55.70
2018-10-17T15:27:00.148Z,55.70
2018-10-17T15:29:27.590Z,55.90
2018-10-17T15:31:55.192Z,56.10
2018-10-17T15:34:22.659Z,56.20
2018-10-17T15:36:50.271Z,56.30
2018-10-17T15:39:17.770Z,56.40
2018-10-17T15:41:46.320Z,56.60
2018-10-17T15:44:13.789Z,56.90
2018-10-17T15:46:41.260Z,57.20
2018-10-17T15:49:08.808Z,57.30
2018-10-17T15:51:36.303Z,57.50
2018-10-17T15:54:03.943Z,57.80
2018-10-17T15:56:31.376Z,58.00
2018-10-17T15:58:58.902Z,58.20
2018-10-17T16:01:26.459Z,58.50
2018-10-17T16:03:53.920Z,58.70
2018-10-17T16:06:21.478Z,59.10
2018-10-17T16:08:49.001Z,59.20
2018-10-17T16:11:16.522Z,59.50
2018-10-17T16:13:44.026Z,59.70
2018-10-17T16:16:11.533Z,60.00
2018-10-17T16:18:39.012Z,60.50
2018-10-17T16:21:06.489Z,60.80
2018-10-17T16:23:34.033Z,61.20
2018-10-17T16:26:01.610Z,61.70
2018-10-17T16:28:29.117Z,62.00
2018-10-17T16:30:56.653Z,62.50
2018-10-17T16:33:24.103Z,62.80
2018-10-17T16:35:51.620Z,63.10
2018-10-17T16:38:19.210Z,63.40
2018-10-17T16:40:46.698Z,63.90
2018-10-17T16:43:14.192Z,64.20
2018-10-17T16:45:41.721Z,64.50
2018-10-17T16:48:09.347Z,64.80
2018-10-17T16:50:36.945Z,65.00
2018-10-17T16:53:04.302Z,65.50
2018-10-17T16:55:31.816Z,66.00
2018-10-17T16:57:59.319Z,67.30
2018-10-17T17:00:26.800Z,66.60
2018-10-17T17:02:54.365Z,66.90
2018-10-17T17:05:21.879Z,67.10
2018-10-17T17:07:49.410Z,67.40
2018-10-17T17:10:17.057Z,67.60
2018-10-17T17:12:44.506Z,67.80
2018-10-17T17:15:12.228Z,68.30
2018-10-17T17:17:39.764Z,68.70
2018-10-17T17:20:08.709Z,69.10
2018-10-17T17:22:36.592Z,69.40
2018-10-17T17:25:04.229Z,69.70
2018-10-17T17:27:31.784Z,70.10
2018-10-17T17:29:59.385Z,70.50
2018-10-17T17:32:26.885Z,71.00
2018-10-17T17:34:54.369Z,71.40
2018-10-17T17:37:21.854Z,72.10
2018-10-17T17:39:49.334Z,72.40
2018-10-17T17:42:16.811Z,72.70
2018-10-17T17:44:44.314Z,73.20
2018-10-17T17:47:11.850Z,74.40
2018-10-17T17:49:39.311Z,74.50
2018-10-17T17:52:06.904Z,75.00
2018-10-17T17:54:34.394Z,75.40
2018-10-17T17:57:01.893Z,75.80
2018-10-17T17:59:29.393Z,76.50
2018-10-17T18:01:56.852Z,76.80
2018-10-17T18:04:24.455Z,77.30
2018-10-17T18:06:52.395Z,77.50
2018-10-17T18:09:20.013Z,77.90
2018-10-17T18:11:47.651Z,78.30
2018-10-17T18:14:15.240Z,78.70
2018-10-17T18:16:42.754Z,79.00
2018-10-17T18:19:10.289Z,79.50
2018-10-17T18:21:37.860Z,80.00
2018-10-17T18:24:05.384Z,80.30
2018-10-17T18:26:33.079Z,81.20
2018-10-17T18:29:00.547Z,80.90
2018-10-17T18:31:28.064Z,81.30
2018-10-17T18:33:55.829Z,81.50
2018-10-17T18:36:23.270Z,81.80
2018-10-17T18:38:50.773Z,82.40
2018-10-17T18:41:18.305Z,82.60
2018-10-17T18:43:45.808Z,83.20
2018-10-17T18:46:13.294Z,83.50
2018-10-17T18:48:40.942Z,83.60
2018-10-17T18:51:08.463Z,83.90
2018-10-17T18:53:35.887Z,84.10
2018-10-17T18:56:03.545Z,84.50
2018-10-17T18:58:30.934Z,84.90
2018-10-17T19:00:58.458Z,85.40
2018-10-17T19:03:25.933Z,85.70
2018-10-17T19:05:53.464Z,86.00
2018-10-17T19:08:21.066Z,86.30
2018-10-17T19:10:48.494Z,86.50
2018-10-17T19:13:16.011Z,86.90
2018-10-17T19:15:43.694Z,87.20
2018-10-17T19:18:11.203Z,87.50
2018-10-17T19:20:38.725Z,87.80
2018-10-17T19:23:06.227Z,88.20
2018-10-17T19:25:33.789Z,88.30
2018-10-17T19:28:01.456Z,88.60
2018-10-17T19:30:29.000Z,88.90
2018-10-17T19:32:56.573Z,89.20
2018-10-17T19:35:24.254Z,90.00
2018-10-17T19:37:51.826Z,90.60
2018-10-17T19:40:19.430Z,90.70
2018-10-17T19:42:46.971Z,90.80
2018-10-17T19:45:14.651Z,90.90
2018-10-17T19:47:42.107Z,91.10
2018-10-17T19:50:09.623Z,91.40
2018-10-17T19:52:37.213Z,91.40
2018-10-17T19:55:05.746Z,91.50
2018-10-17T19:57:33.275Z,91.60
2018-10-17T20:00:00.799Z,91.60
2018-10-17T20:02:28.307Z,91.70
2018-10-17T20:04:55.878Z,91.80
2018-10-17T20:07:23.564Z,91.90
2018-10-17T20:09:51.076Z,92.00
2018-10-17T20:12:18.583Z,92.10
2018-10-17T20:14:46.260Z,92.20
2018-10-17T20:17:13.790Z,92.30
2018-10-17T20:19:41.333Z,92.40
2018-10-17T20:22:10.703Z,92.50
2018-10-17T20:24:38.288Z,92.60
2018-10-17T20:27:06.349Z,93.10
2018-10-17T20:29:33.840Z,92.80
2018-10-17T20:32:01.331Z,92.90
2018-10-17T20:34:28.859Z,93.00
2018-10-17T20:36:56.387Z,93.10
2018-10-17T20:39:24.059Z,93.20
2018-10-17T20:41:51.599Z,93.30
2018-10-17T20:44:19.136Z,93.40
2018-10-17T20:46:46.869Z,93.50
2018-10-17T20:49:14.399Z,93.60
2018-10-17T20:51:42.040Z,93.70
2018-10-17T20:54:09.582Z,93.80
2018-10-17T20:56:37.576Z,93.90
2018-10-17T20:59:05.212Z,94.10
2018-10-17T21:01:32.699Z,94.10
2018-10-17T21:04:00.207Z,94.20
2018-10-17T21:06:27.858Z,94.20
2018-10-17T21:08:55.390Z,94.30
2018-10-17T21:11:23.005Z,94.40
2018-10-17T21:13:50.516Z,94.50
2018-10-17T21:16:18.110Z,94.50
2018-10-17T21:18:45.722Z,94.60
2018-10-17T21:21:13.230Z,94.80
2018-10-17T21:23:40.744Z,94.70
2018-10-17T21:26:08.273Z,94.90
2018-10-17T21:28:35.838Z,94.90
2018-10-17T21:31:03.375Z,95.00
2018-10-17T21:33:30.937Z,95.00
2018-10-17T21:35:58.463Z,95.10
2018-10-17T21:38:25.945Z,95.20
2018-10-17T21:40:53.533Z,95.30
2018-10-17T21:43:21.068Z,95.30
2018-10-17T21:45:48.588Z,95.40
2018-10-17T21:48:16.057Z,95.50
2018-10-17T21:50:43.546Z,95.60
2018-10-17T21:53:11.012Z,95.60
2018-10-17T21:55:38.530Z,95.70
2018-10-17T21:58:06.005Z,95.80
2018-10-17T22:00:33.545Z,95.90
2018-10-17T22:03:01.028Z,95.90
2018-10-17T22:05:28.520Z,95.90
2018-10-17T22:07:55.999Z,96.00
2018-10-17T22:10:23.509Z,96.00
2018-10-17T22:12:51.012Z,96.10
2018-10-17T22:15:18.527Z,96.20
2018-10-17T22:17:45.997Z,96.20
2018-10-17T22:20:13.577Z,96.20
2018-10-17T22:22:41.071Z,96.30
2018-10-17T22:25:08.629Z,96.60
2018-10-17T22:27:36.117Z,96.70
2018-10-17T22:30:04.018Z,96.70
2018-10-17T22:32:31.457Z,96.80
2018-10-17T22:34:58.946Z,96.80
2018-10-17T22:37:26.495Z,96.80
2018-10-17T22:39:54.030Z,96.90
2018-10-17T22:42:21.490Z,96.90
2018-10-17T22:44:48.977Z,96.90
2018-10-17T22:47:16.490Z,97.00
2018-10-17T22:49:44.006Z,97.00
2018-10-17T22:52:11.506Z,97.10
2018-10-17T22:54:38.994Z,97.10
2018-10-17T22:57:06.500Z,97.10
2018-10-17T22:59:34.011Z,97.20
2018-10-17T23:02:01.608Z,97.30
2018-10-17T23:04:29.054Z,97.30
2018-10-17T23:06:56.586Z,97.40
2018-10-17T23:09:24.136Z,97.50
2018-10-17T23:11:51.649Z,97.50
2018-10-17T23:14:19.168Z,97.60
2018-10-17T23:16:46.682Z,97.70
2018-10-17T23:19:14.221Z,97.70
2018-10-17T23:21:41.817Z,97.70
2018-10-17T23:24:09.320Z,97.80
2018-10-17T23:26:36.830Z,97.80
2018-10-17T23:29:04.360Z,97.80
2018-10-17T23:31:31.853Z,97.90
2018-10-17T23:33:59.337Z,97.90
2018-10-17T23:36:26.847Z,97.90
2018-10-17T23:38:54.356Z,98.00
2018-10-17T23:41:22.245Z,98.10
2018-10-17T23:43:49.741Z,98.10
2018-10-17T23:46:17.241Z,98.10
2018-10-17T23:48:44.750Z,98.20
2018-10-17T23:51:12.233Z,98.20
2018-10-17T23:53:39.691Z,98.30
2018-10-17T23:56:07.556Z,98.40
2018-10-17T23:58:34.991Z,98.50
